Time;durP1;ratioP1;P1;durP2;ratioP2;P2;SDS_P1;SDS_P2;PMS_P1;PMS_P2;Temp;Humidity;BMP_temperature;BMP_pressure;BME280_temperature;BME280_humidity;BME280_pressure;Samples;Min_cycle;Max_cycle;Signal;HPM_P1;HPM_P2
2022/04/10 00:01:14;;;;;;;7.60;4.63;;;;;;;8.58;85.81;97822.25;4974441;28;20682;-78
2022/04/10 00:03:40;;;;;;;6.47;4.93;;;;;;;8.51;86.37;97811.22;4955431;28;20070;-78
2022/04/10 00:06:06;;;;;;;8.23;5.32;;;;;;;8.35;86.92;97800.41;4973161;28;20074;-77
2022/04/10 00:08:32;;;;;;;7.80;5.20;;;;;;;8.23;86.74;97774.00;4972710;28;20042;-77
2022/04/10 00:10:58;;;;;;;8.18;5.50;;;;;;;8.48;87.27;97818.22;4956552;28;20031;-77
2022/04/10 00:13:23;;;;;;;7.93;5.32;;;;;;;8.48;87.85;97821.66;4973704;28;20050;-76
2022/04/10 00:15:49;;;;;;;6.93;5.78;;;;;;;8.45;88.31;97816.53;4972401;28;20070;-78
2022/04/10 00:18:15;;;;;;;;;;;;;;;8.48;88.54;97818.22;4956707;28;20054;-76
2022/04/10 00:20:40;;;;;;;10.13;5.75;;;;;;;8.41;88.14;97822.66;4973317;28;19918;-76
2022/04/10 00:23:06;;;;;;;;;;;;;;;8.44;88.73;97822.59;4973744;28;20042;-76
2022/04/10 00:25:32;;;;;;;9.20;5.65;;;;;;;8.39;88.39;97814.97;4972940;28;19957;-76
2022/04/10 00:27:57;;;;;;;;;;;;;;;8.47;89.22;97819.06;4972918;28;20074;-76
2022/04/10 00:30:23;;;;;;;8.57;5.40;;;;;;;8.44;88.85;97814.00;4971583;28;19933;-76
2022/04/10 00:32:48;;;;;;;;;;;;;;;8.50;89.35;97824.19;4955612;28;20035;-76
2022/04/10 00:35:14;;;;;;;9.27;5.75;;;;;;;8.48;88.75;97831.13;4971624;28;19918;-76
2022/04/10 00:37:40;;;;;;;9.60;5.47;;;;;;;8.42;88.56;97818.34;4936836;29;20082;-76
2022/04/10 00:40:08;;;;;;;8.27;5.53;;;;;;;8.42;88.88;97815.75;4955590;28;20049;-76
2022/04/10 00:42:35;;;;;;;7.50;5.13;;;;;;;8.38;89.33;97815.88;4944820;29;20494;-75
2022/04/10 00:45:01;;;;;;;9.13;5.70;;;;;;;8.39;89.67;97825.31;4970505;28;20559;-75
2022/04/10 00:47:26;;;;;;;9.38;5.85;;;;;;;8.34;89.90;97803.03;4968230;28;20031;-75
2022/04/10 00:49:53;;;;;;;8.85;5.75;;;;;;;8.40;89.40;97813.22;4952504;28;20596;-76
2022/04/10 00:52:19;;;;;;;8.25;5.35;;;;;;;8.36;89.96;97806.41;4971535;28;20138;-76
2022/04/10 00:54:45;;;;;;;8.50;5.50;;;;;;;8.37;89.80;97808.97;4939274;28;20043;-76
2022/04/10 00:57:11;;;;;;;;;;;;;;;8.37;89.97;97815.88;4971337;28;20490;-76
2022/04/10 00:59:37;;;;;;;6.80;4.90;;;;;;;8.31;90.09;97814.28;4971577;28;19925;-77
2022/04/10 01:02:03;;;;;;;;;;;;;;;8.43;90.22;97812.28;4972341;28;20062;-75
2022/04/10 01:04:29;;;;;;;6.90;5.32;;;;;;;8.35;90.37;97804.72;4972985;28;20007;-76
2022/04/10 01:06:54;;;;;;;7.30;5.50;;;;;;;8.31;90.49;97810.84;4971926;28;20461;-76
2022/04/10 01:09:20;;;;;;;8.23;5.05;;;;;;;8.31;90.90;97793.59;4971729;28;20089;-76
2022/04/10 01:11:46;;;;;;;8.20;5.22;;;;;;;8.29;90.69;97794.50;4971822;28;20093;-76
2022/04/10 01:14:12;;;;;;;;;;;;;;;8.29;91.38;97782.47;4971905;28;20390;-76
2022/04/10 01:16:39;;;;;;;7.20;5.80;;;;;;;8.30;91.29;97785.91;4952624;28;20373;-78
2022/04/10 01:19:06;;;;;;;8.85;5.32;;;;;;;8.34;91.50;97787.53;4967939;28;20513;-74
2022/04/10 01:21:39;;;;;;;7.88;5.20;;;;;;;8.34;91.79;97784.94;4971066;28;20042;-74
2022/04/10 01:24:05;;;;;;;8.73;5.93;;;;;;;8.39;91.50;97785.69;4970773;28;20043;-76
2022/04/10 01:26:31;;;;;;;7.22;5.28;;;;;;;8.38;91.87;97783.97;4970815;28;20039;-75
2022/04/10 01:29:11;;;;;;;6.88;5.43;;;;;;;8.42;91.65;97795.94;4943778;28;20041;-75
2022/04/10 01:31:39;;;;;;;7.43;5.60;;;;;;;8.41;91.65;97794.25;4970581;28;20068;-76
2022/04/10 01:34:08;;;;;;;7.45;5.50;;;;;;;8.43;91.64;97802.81;4954860;28;20042;-77
2022/04/10 01:36:35;;;;;;;6.85;5.47;;;;;;;8.44;91.52;97806.25;4938639;28;20049;-77
2022/04/10 01:39:03;;;;;;;7.40;5.68;;;;;;;8.42;91.51;97806.28;4954995;28;20053;-75
2022/04/10 01:41:30;;;;;;;9.57;5.78;;;;;;;8.42;91.48;97805.44;4937112;28;20043;-75
2022/04/10 01:43:58;;;;;;;9.73;5.75;;;;;;;8.47;91.41;97811.31;4955313;28;20058;-75
2022/04/10 01:46:27;;;;;;;8.07;5.10;;;;;;;8.48;91.71;97811.31;4970556;28;20050;-75
2022/04/10 01:48:52;;;;;;;8.15;5.10;;;;;;;8.48;91.55;97821.66;4955670;28;20030;-76
2022/04/10 01:51:18;;;;;;;7.43;5.55;;;;;;;8.43;91.04;97818.34;4971364;28;20039;-75
2022/04/10 01:53:44;;;;;;;7.53;5.47;;;;;;;8.42;91.05;97820.94;4971538;28;20065;-76
2022/04/10 01:56:10;;;;;;;7.55;5.40;;;;;;;8.38;91.33;97815.88;4956238;28;20042;-78
2022/04/10 01:58:42;;;;;;;9.40;5.65;;;;;;;8.40;91.13;97820.97;4974953;28;20045;-77
2022/04/10 02:01:09;;;;;;;9.05;5.80;;;;;;;8.38;91.20;97827.91;4955955;28;20035;-75
2022/04/10 02:03:35;;;;;;;8.40;6.03;;;;;;;8.31;91.55;97810.84;4971667;28;20409;-75
2022/04/10 02:06:01;;;;;;;8.70;6.07;;;;;;;8.29;91.34;97795.38;4974931;28;20516;-77
2022/04/10 02:08:28;;;;;;;7.35;5.65;;;;;;;8.31;91.45;97819.44;4956013;28;20038;-76
2022/04/10 02:10:53;;;;;;;10.10;6.38;;;;;;;8.18;91.80;97799.94;4974825;28;20533;-76
2022/04/10 02:13:19;;;;;;;8.35;5.88;;;;;;;8.40;91.77;97836.47;4948477;29;20094;-76
2022/04/10 02:15:45;;;;;;;9.20;6.25;;;;;;;8.41;91.48;97840.75;4973160;28;20094;-76
2022/04/10 02:18:12;;;;;;;9.45;6.00;;;;;;;8.33;91.78;97840.06;4975977;28;20055;-75
2022/04/10 02:20:38;;;;;;;9.52;5.57;;;;;;;8.35;92.10;97836.56;4974748;28;20031;-76
2022/04/10 02:23:04;;;;;;;7.43;5.63;;;;;;;8.33;91.46;97838.31;4974655;28;20051;-76
2022/04/10 02:25:29;;;;;;;;;;;;;;;8.38;91.95;97839.13;4950552;28;20047;-75
2022/04/10 02:27:55;;;;;;;7.32;5.63;;;;;;;8.35;91.76;97840.88;5001011;28;19943;-77
2022/04/10 02:30:21;;;;;;;7.35;5.63;;;;;;;8.35;91.89;97839.16;4951117;28;20046;-76
2022/04/10 02:32:47;;;;;;;9.82;6.32;;;;;;;8.35;91.81;97846.91;4974739;28;20194;-75
2022/04/10 02:35:13;;;;;;;8.55;6.22;;;;;;;8.14;91.83;97806.06;4975541;28;20038;-77
2022/04/10 02:37:38;;;;;;;;;;;;;;;8.42;92.36;97846.78;4974763;28;20039;-76
2022/04/10 02:40:05;;;;;;;11.15;6.25;;;;;;;8.39;91.86;97848.56;4974397;28;19973;-76
2022/04/10 02:42:33;;;;;;;8.07;5.50;;;;;;;8.40;91.65;97850.25;4958612;28;20069;-76
2022/04/10 02:45:01;;;;;;;8.40;6.25;;;;;;;8.28;91.69;97823.81;4974502;28;20085;-76
2022/04/10 02:47:26;;;;;;;8.05;5.88;;;;;;;8.35;91.47;97838.31;4954749;28;20039;-76
2022/04/10 02:49:52;;;;;;;;;;;;;;;8.42;92.06;97834.69;4955446;28;20126;-76
2022/04/10 02:52:20;;;;;;;9.52;5.78;;;;;;;8.36;91.39;97830.53;4983141;28;19914;-75
2022/04/10 02:54:46;;;;;;;;;;;;;;;8.41;91.97;97838.16;4952050;28;20042;-75
2022/04/10 02:57:11;;;;;;;9.60;6.10;;;;;;;8.39;91.59;97830.47;4973573;28;20448;-76
2022/04/10 02:59:38;;;;;;;9.52;6.18;;;;;;;8.33;91.72;97833.16;4957390;28;20064;-75
2022/04/10 03:02:04;;;;;;;7.55;5.93;;;;;;;8.33;91.68;97833.16;4957244;28;20040;-76
2022/04/10 03:04:30;;;;;;;9.23;5.93;;;;;;;8.37;91.53;97839.13;4941874;28;20522;-74
2022/04/10 03:06:57;;;;;;;8.63;6.10;;;;;;;8.41;91.42;97853.69;4974577;28;20486;-76
2022/04/10 03:09:24;;;;;;;8.90;6.38;;;;;;;8.38;91.61;97852.03;4972540;28;20097;-76
2022/04/10 03:11:51;;;;;;;9.95;6.43;;;;;;;8.36;91.70;97852.91;4973113;28;20030;-76
2022/04/10 03:14:17;;;;;;;9.82;6.30;;;;;;;8.35;91.50;97852.06;4957359;28;20049;-76
2022/04/10 03:16:43;;;;;;;10.25;6.45;;;;;;;8.37;90.98;97864.97;4974423;28;20530;-74
2022/04/10 03:19:10;;;;;;;10.00;6.28;;;;;;;8.33;91.67;97851.22;4956801;28;20058;-75
2022/04/10 03:21:36;;;;;;;8.05;5.65;;;;;;;8.39;91.70;97870.97;4974319;28;20055;-76
2022/04/10 03:24:02;;;;;;;9.43;6.50;;;;;;;8.38;91.57;97867.53;4973507;28;20093;-76
2022/04/10 03:26:28;;;;;;;8.98;6.35;;;;;;;8.32;91.17;97861.63;4940712;28;20034;-76
2022/04/10 03:28:54;;;;;;;9.77;6.22;;;;;;;8.41;91.46;97887.25;4957113;28;20462;-76
2022/04/10 03:31:23;;;;;;;7.80;5.95;;;;;;;8.40;91.55;97891.59;4972730;28;20066;-76
2022/04/10 03:33:51;;;;;;;12.18;6.60;;;;;;;8.38;90.85;97890.78;4973202;28;20529;-75
2022/04/10 03:36:17;;;;;;;10.70;6.63;;;;;;;8.39;91.32;97889.91;4957093;28;20035;-77
2022/04/10 03:38:43;;;;;;;;;;;;;;;8.45;91.66;97894.06;4973363;28;20053;-76
2022/04/10 03:41:09;;;;;;;9.25;6.85;;;;;;;8.43;91.20;97894.97;4972809;28;20293;-74
2022/04/10 03:43:36;;;;;;;;;;;;;;;8.52;91.37;97905.09;4973291;28;20050;-78
2022/04/10 03:46:02;;;;;;;;;;;;;;;8.53;90.31;97897.31;4963382;28;19914;-77
2022/04/10 03:48:30;;;;;;;10.10;6.50;;;;;;;8.51;89.71;97891.31;4985555;28;19926;-78
2022/04/10 03:50:55;;;;;;;8.20;6.53;;;;;;;8.51;90.42;97893.06;4969523;28;20039;-77
2022/04/10 03:53:21;;;;;;;9.05;6.88;;;;;;;8.47;89.88;97889.69;4971924;28;20047;-75
2022/04/10 03:55:48;;;;;;;9.88;6.10;;;;;;;8.49;90.62;97903.44;4957085;28;20460;-75
2022/04/10 03:58:15;;;;;;;12.02;7.25;;;;;;;8.53;89.96;97911.97;4972911;28;20469;-77
2022/04/10 04:00:41;;;;;;;10.77;6.70;;;;;;;8.48;90.29;97904.34;4957020;28;20121;-77
2022/04/10 04:03:11;;;;;;;11.02;7.00;;;;;;;8.57;90.59;97919.63;4972685;28;20133;-77
2022/04/10 04:05:38;;;;;;;9.32;6.95;;;;;;;8.53;90.43;97922.31;4956749;28;20045;-77
2022/04/10 04:08:08;;;;;;;10.07;6.80;;;;;;;8.61;90.83;97925.53;4945194;29;20446;-75
2022/04/10 04:10:34;;;;;;;10.13;7.07;;;;;;;8.64;89.99;97926.31;4970776;28;20129;-76
2022/04/10 04:13:01;;;;;;;9.40;6.50;;;;;;;8.59;90.15;97909.25;4972829;28;20178;-77
2022/04/10 04:15:28;;;;;;;9.32;6.15;;;;;;;8.61;90.11;97918.66;4972644;28;20097;-79
2022/04/10 04:17:55;;;;;;;10.18;6.70;;;;;;;8.65;90.42;97929.75;4972172;28;20041;-74
2022/04/10 04:20:21;;;;;;;9.57;6.57;;;;;;;8.63;90.64;97942.72;4955490;28;20034;-77
2022/04/10 04:22:48;;;;;;;;;;;;;;;8.70;90.85;97950.31;4972523;28;20047;-76
2022/04/10 04:25:15;;;;;;;8.98;6.25;;;;;;;8.67;89.91;97950.41;4972162;28;19918;-76
2022/04/10 04:27:43;;;;;;;10.00;6.60;;;;;;;8.64;90.16;97952.19;4952607;28;20129;-75
2022/04/10 04:30:10;;;;;;;9.25;6.82;;;;;;;8.56;90.27;97948.91;4971608;28;20070;-75
2022/04/10 04:32:39;;;;;;;15.60;7.03;;;;;;;8.62;90.12;97968.63;4956075;28;20034;-76
2022/04/10 04:35:06;;;;;;;11.35;6.45;;;;;;;8.60;90.22;97963.47;4955811;28;20039;-75
2022/04/10 04:37:35;;;;;;;8.40;6.22;;;;;;;8.64;90.23;97962.50;4955640;28;20035;-74
2022/04/10 04:40:01;;;;;;;11.40;7.43;;;;;;;8.61;90.08;97965.19;4971625;28;20041;-75
2022/04/10 04:42:27;;;;;;;8.57;6.65;;;;;;;8.55;90.00;97965.31;4973062;28;20314;-76
2022/04/10 04:44:53;;;;;;;13.43;7.05;;;;;;;8.50;90.47;97964.56;4926394;28;20055;-78
2022/04/10 04:47:20;;;;;;;;;;;;;;;8.61;90.64;97978.13;4952607;29;20035;-76
2022/04/10 04:49:47;;;;;;;9.77;7.53;;;;;;;8.54;89.98;97986.88;5000001;28;19922;-76
2022/04/10 04:52:13;;;;;;;9.25;7.18;;;;;;;8.48;90.44;97987.03;4971184;28;20412;-76
2022/04/10 04:54:39;;;;;;;11.40;7.80;;;;;;;8.45;89.98;97992.25;4971320;28;20042;-77
2022/04/10 04:57:06;;;;;;;10.90;7.70;;;;;;;8.43;90.60;97988.00;4952147;28;20406;-77
2022/04/10 04:59:36;;;;;;;10.55;7.43;;;;;;;8.46;90.62;97998.28;4971510;28;20035;-76
2022/04/10 05:02:03;;;;;;;10.25;7.85;;;;;;;8.29;90.93;97972.75;4971503;28;20509;-76
2022/04/10 05:04:29;;;;;;;9.95;7.03;;;;;;;8.40;90.79;97992.34;4955382;28;20525;-77
2022/04/10 05:06:58;;;;;;;10.80;7.47;;;;;;;8.48;90.38;98005.13;4971064;28;20039;-76
2022/04/10 05:09:24;;;;;;;9.30;5.70;;;;;;;8.63;89.65;98007.34;4955524;28;20053;-76
2022/04/10 05:11:50;;;;;;;7.00;4.45;;;;;;;8.63;87.74;98020.28;4970942;28;20405;-75
2022/04/10 05:14:17;;;;;;;6.50;3.90;;;;;;;8.65;87.42;98034.00;4970896;28;20038;-76
2022/04/10 05:16:43;;;;;;;5.80;3.08;;;;;;;8.66;86.83;98042.63;4971136;28;20055;-76
2022/04/10 05:19:09;;;;;;;5.70;2.40;;;;;;;8.77;83.57;98045.81;4970607;28;20393;-74
2022/04/10 05:21:35;;;;;;;3.85;1.80;;;;;;;8.88;83.50;98053.31;4955383;28;20035;-77
2022/04/10 05:24:01;;;;;;;3.28;1.85;;;;;;;8.79;81.64;98077.63;4954915;28;20037;-76
2022/04/10 05:26:29;;;;;;;3.13;1.70;;;;;;;8.73;80.65;98095.88;4970844;28;20042;-76
2022/04/10 05:28:59;;;;;;;2.35;1.52;;;;;;;8.56;79.90;98097.97;4972170;28;20039;-77
2022/04/10 05:31:24;;;;;;;;;;;;;;;8.58;81.17;98101.41;4955200;28;20038;-77
2022/04/10 05:33:51;;;;;;;2.63;1.50;;;;;;;8.57;80.53;98115.22;4970748;28;19918;-76
2022/04/10 05:36:19;;;;;;;1.95;1.00;;;;;;;8.77;78.53;98096.69;4939699;28;20046;-77
2022/04/10 05:38:47;;;;;;;1.38;0.80;;;;;;;8.80;77.47;98106.97;4970575;28;20549;-76
2022/04/10 05:41:15;;;;;;;1.05;0.60;;;;;;;8.96;75.75;98112.63;4954812;28;20038;-76
2022/04/10 05:43:46;;;;;;;1.88;0.80;;;;;;;8.99;74.65;98135.84;4970791;28;20038;-76
2022/04/10 05:46:13;;;;;;;0.65;0.50;;;;;;;9.08;74.14;98144.25;4952381;28;20050;-76
2022/04/10 05:48:39;;;;;;;1.02;0.60;;;;;;;9.08;73.61;98133.91;4970747;28;20490;-75
2022/04/10 05:51:07;;;;;;;1.23;0.60;;;;;;;9.01;73.97;98137.50;4971061;28;20138;-77
2022/04/10 05:53:34;;;;;;;1.40;0.70;;;;;;;9.05;73.06;98126.19;4970879;28;20422;-77
2022/04/10 05:56:00;;;;;;;1.48;0.65;;;;;;;9.12;71.90;98124.34;4955542;28;20450;-76
2022/04/10 05:58:30;;;;;;;1.17;0.77;;;;;;;9.25;70.60;98127.47;4971141;28;20031;-77
2022/04/10 06:00:57;;;;;;;1.80;0.70;;;;;;;9.25;71.39;98135.25;4951973;28;20541;-76
2022/04/10 06:03:23;;;;;;;;;;;;;;;9.36;70.72;98146.22;4971239;28;20042;-77
2022/04/10 06:05:52;;;;;;;1.60;0.50;;;;;;;9.19;70.98;98145.75;4970983;28;20403;-76
2022/04/10 06:08:27;;;;;;;1.70;0.90;;;;;;;9.21;69.11;98138.78;4956171;28;20469;-77
2022/04/10 06:10:52;;;;;;;1.00;0.60;;;;;;;9.14;69.67;98140.66;4970730;28;20043;-77
2022/04/10 06:13:20;;;;;;;;;;;;;;;9.38;70.05;98154.78;4971531;28;20035;-77
2022/04/10 06:15:51;;;;;;;2.20;0.80;;;;;;;9.14;68.41;98154.44;4970581;28;19918;-77
2022/04/10 06:18:17;;;;;;;1.73;0.77;;;;;;;9.20;69.41;98163.81;4971215;28;20063;-77
2022/04/10 06:20:43;;;;;;;;;;;;;;;9.37;69.55;98168.59;4971141;28;20109;-78
2022/04/10 06:23:10;;;;;;;1.77;1.00;;;;;;;9.16;68.31;98172.50;4971266;28;19917;-76
2022/04/10 06:25:40;;;;;;;1.95;0.90;;;;;;;9.04;68.35;98186.59;4955482;28;20039;-77
2022/04/10 06:28:06;;;;;;;3.08;1.10;;;;;;;9.06;67.67;98177.03;4971472;28;20133;-76
2022/04/10 06:30:39;;;;;;;1.85;1.33;;;;;;;8.95;68.00;98183.34;4954081;28;20035;-78
2022/04/10 06:33:05;;;;;;;2.00;0.90;;;;;;;8.95;68.23;98186.78;4972602;28;20053;-76
2022/04/10 06:35:31;;;;;;;2.08;0.88;;;;;;;8.88;67.89;98198.13;4970509;28;20391;-76
2022/04/10 06:37:59;;;;;;;1.45;0.77;;;;;;;8.83;67.69;98203.38;4969377;28;20457;-78
2022/04/10 06:40:26;;;;;;;0.88;0.70;;;;;;;8.87;69.03;98217.13;4954959;28;20516;-77
2022/04/10 06:42:52;;;;;;;;;;;;;;;9.05;68.74;98226.25;4971938;28;20038;-76
2022/04/10 06:45:21;;;;;;;1.10;0.70;;;;;;;8.91;67.16;98216.19;4976473;28;20012;-77
2022/04/10 06:47:56;;;;;;;2.50;0.80;;;;;;;8.50;67.32;98197.16;4975711;28;20053;-79
2022/04/10 06:50:32;;;;;;;1.40;0.80;;;;;;;8.69;69.21;98239.00;4959291;28;20050;-75
2022/04/10 06:53:02;;;;;;;1.50;0.80;;;;;;;8.45;66.88;98240.34;4974309;28;20074;-77
2022/04/10 06:55:28;;;;;;;1.23;0.85;;;;;;;8.15;67.97;98265.81;4958262;28;20561;-79
2022/04/10 06:57:54;;;;;;;2.42;0.88;;;;;;;8.07;70.41;98259.06;4958621;28;20134;-78
2022/04/10 07:00:22;;;;;;;2.45;0.80;;;;;;;8.05;70.36;98271.13;4957937;28;20038;-77
2022/04/10 07:02:49;;;;;;;2.28;0.80;;;;;;;8.12;70.38;98272.75;4974430;28;20038;-77
2022/04/10 07:05:15;;;;;;;2.53;0.90;;;;;;;8.02;69.05;98266.88;4940599;28;20061;-77
2022/04/10 07:07:46;;;;;;;1.83;0.80;;;;;;;8.18;70.60;98284.69;4943780;28;20066;-76
2022/04/10 07:10:14;;;;;;;2.15;0.80;;;;;;;8.19;68.99;98264.00;4957899;28;20038;-78
2022/04/10 07:12:40;;;;;;;1.63;0.90;;;;;;;8.26;68.59;98288.03;4973584;28;20034;-76
2022/04/10 07:15:07;;;;;;;1.00;0.80;;;;;;;8.55;68.93;98288.38;4974846;28;20418;-76
2022/04/10 07:17:33;;;;;;;1.30;0.70;;;;;;;8.86;67.58;98282.66;4939452;29;20039;-77
2022/04/10 07:20:03;;;;;;;1.25;0.80;;;;;;;8.93;67.33;98297.16;4965738;28;20042;-77
2022/04/10 07:25:17;;;;;;;2.25;0.68;;;;;;;8.95;67.47;98299.72;4960203;28;20084;-77
2022/04/10 07:27:44;;;;;;;1.52;1.00;;;;;;;8.83;66.47;98305.97;4973486;28;20121;-77
2022/04/10 07:30:29;;;;;;;1.70;1.00;;;;;;;8.78;67.95;98307.81;4973589;28;20042;-77
2022/04/10 07:33:00;;;;;;;2.45;0.90;;;;;;;9.00;67.65;98316.84;4960550;28;20417;-79
2022/04/10 07:35:29;;;;;;;2.15;0.70;;;;;;;9.24;66.08;98330.19;4958183;28;20046;-76
2022/04/10 07:38:06;;;;;;;1.10;0.70;;;;;;;9.21;64.93;98320.78;4960441;28;20141;-77
2022/04/10 07:40:33;;;;;;;;;;;;;;;9.47;64.99;98338.34;4958267;28;20527;-77
2022/04/10 07:42:59;;;;;;;0.97;0.70;;;;;;;9.45;64.09;98340.13;4973256;28;19914;-77
2022/04/10 07:48:38;;;;;;;1.80;1.10;;;;;;;9.33;64.73;98363.66;4964437;28;20058;-78
2022/04/10 07:51:04;;;;;;;;;;;;;;;9.53;64.38;98365.81;4948364;28;20071;-77
2022/04/10 07:53:53;;;;;;;1.60;1.00;;;;;;;9.43;63.95;98362.56;4985543;28;19918;-77
2022/04/10 07:56:21;;;;;;;1.17;0.90;;;;;;;9.26;63.65;98378.47;4957104;28;20065;-77
2022/04/10 07:58:46;;;;;;;1.88;1.33;;;;;;;9.16;64.74;98389.84;4973333;28;20037;-77
2022/04/10 08:01:20;;;;;;;2.42;1.40;;;;;;;9.12;63.82;98381.31;4973197;28;20133;-77
2022/04/10 08:03:51;;;;;;;2.67;1.50;;;;;;;9.10;64.00;98396.00;4973140;28;20093;-76
2022/04/10 08:06:36;;;;;;;2.42;1.30;;;;;;;9.09;64.66;98403.78;4974513;28;20062;-76
2022/04/10 08:09:01;;;;;;;2.75;1.67;;;;;;;9.26;63.02;98395.72;4953968;29;20043;-76
2022/04/10 08:11:27;;;;;;;1.85;1.15;;;;;;;9.30;63.23;98412.88;4963419;28;20038;-76
2022/04/10 08:13:53;;;;;;;1.73;0.90;;;;;;;9.33;62.77;98412.81;4972645;28;20133;-76
2022/04/10 08:16:19;;;;;;;2.10;1.17;;;;;;;9.21;62.41;98428.56;4973782;28;20485;-80
2022/04/10 08:18:45;;;;;;;2.15;1.10;;;;;;;9.36;63.19;98423.13;4974161;28;20062;-78
2022/04/10 08:21:10;;;;;;;2.17;1.00;;;;;;;9.37;62.16;98430.00;4953801;29;20116;-76
2022/04/10 08:23:36;;;;;;;;;;;;;;;9.34;63.38;98436.06;4960356;28;20035;-75
2022/04/10 08:26:02;;;;;;;1.55;1.00;;;;;;;9.17;62.57;98412.28;5001929;28;20012;-76
2022/04/10 08:28:28;;;;;;;;;;;;;;;9.53;62.21;98435.72;4974597;28;20042;-75
2022/04/10 08:30:54;;;;;;;2.53;1.02;;;;;;;9.48;61.82;98425.44;4972655;28;19922;-75
2022/04/10 08:33:20;;;;;;;1.70;1.00;;;;;;;9.48;62.17;98422.88;4973832;28;20054;-77
2022/04/10 08:35:45;;;;;;;2.20;1.00;;;;;;;9.44;61.89;98436.78;4972941;28;20030;-76
2022/04/10 08:38:11;;;;;;;;;;;;;;;9.52;62.66;98426.25;4973905;28;20046;-76
2022/04/10 08:40:37;;;;;;;2.05;1.10;;;;;;;9.39;62.45;98413.56;4974410;28;19914;-75
2022/04/10 08:43:02;;;;;;;;;;;;;;;9.64;62.73;98426.88;4972655;28;20046;-77
2022/04/10 08:45:28;;;;;;;2.92;1.00;;;;;;;9.65;61.90;98415.63;4972246;28;20373;-76
2022/04/10 08:47:54;;;;;;;;;;;;;;;9.91;61.96;98435.81;4969491;28;20519;-77
2022/04/10 08:50:19;;;;;;;1.73;1.10;;;;;;;9.81;61.78;98436.06;4973196;28;19925;-77
2022/04/10 08:52:45;;;;;;;1.67;1.02;;;;;;;9.83;61.62;98436.84;4972359;28;20132;-75
2022/04/10 08:55:11;;;;;;;2.15;1.30;;;;;;;9.86;61.48;98441.97;4956021;28;20070;-75
2022/04/10 08:57:36;;;;;;;;;;;;;;;9.87;61.43;98446.28;4973598;28;20042;-77
2022/04/10 09:00:03;;;;;;;2.00;1.10;;;;;;;9.87;60.86;98454.91;4971933;28;19914;-79
2022/04/10 09:02:29;;;;;;;2.33;0.93;;;;;;;9.93;62.28;98451.31;4947665;28;20527;-76
2022/04/10 09:04:54;;;;;;;;;;;;;;;10.11;61.84;98470.81;4967764;28;20042;-77
2022/04/10 09:07:21;;;;;;;2.55;1.30;;;;;;;9.79;61.07;98459.38;4971448;28;19925;-77
2022/04/10 09:09:56;;;;;;;1.90;1.30;;;;;;;9.70;61.80;98484.59;4972557;28;20038;-76
2022/04/10 09:12:22;;;;;;;2.15;1.13;;;;;;;9.66;61.87;98497.59;4959569;28;20524;-79
2022/04/10 09:14:49;;;;;;;;;;;;;;;9.82;62.29;98485.22;4972712;28;20055;-78
2022/04/10 09:17:24;;;;;;;2.83;1.20;;;;;;;9.69;61.30;98473.38;4990526;28;20300;-78
2022/04/10 09:19:51;;;;;;;1.73;1.17;;;;;;;9.60;61.36;98489.09;4973501;28;20405;-79
2022/04/10 09:22:27;;;;;;;2.40;1.50;;;;;;;9.46;62.97;98486.78;4973159;28;20050;-77
2022/04/10 09:25:12;;;;;;;;;;;;;;;9.46;63.27;98491.09;4972521;28;20051;-77
2022/04/10 09:27:41;;;;;;;1.90;1.30;;;;;;;9.45;62.87;98492.84;4973123;28;19917;-77
2022/04/10 09:30:08;;;;;;;2.78;1.55;;;;;;;9.28;62.67;98476.75;4972132;28;20114;-78
2022/04/10 09:32:45;;;;;;;1.85;1.20;;;;;;;9.56;63.04;98495.22;4973146;28;20104;-77
2022/04/10 09:35:12;;;;;;;2.50;1.70;;;;;;;9.61;61.99;98491.66;4971796;28;20441;-76
2022/04/10 09:37:45;;;;;;;3.85;1.65;;;;;;;9.71;62.38;98489.75;4955830;28;20058;-78
2022/04/10 09:40:30;;;;;;;2.42;1.33;;;;;;;9.71;61.50;98457.81;4972022;28;20490;-78
2022/04/10 09:43:07;;;;;;;3.22;1.45;;;;;;;9.91;60.83;98492.81;4938087;29;20043;-78
2022/04/10 09:45:35;;;;;;;;;;;;;;;9.99;60.88;98508.22;4966840;28;20498;-77
2022/04/10 09:48:20;;;;;;;3.00;1.27;;;;;;;9.86;61.66;98511.91;4970361;28;19929;-77
2022/04/10 09:50:47;;;;;;;3.00;1.80;;;;;;;9.77;60.08;98481.03;4972556;28;20042;-77
2022/04/10 09:53:13;;;;;;;2.15;1.20;;;;;;;9.85;61.09;98500.72;4971384;28;20054;-78
2022/04/10 09:55:39;;;;;;;;;;;;;;;10.03;60.90;98509.81;4973449;28;20139;-78
2022/04/10 09:58:13;;;;;;;2.75;1.60;;;;;;;9.87;58.90;98518.81;4972874;28;19918;-76
2022/04/10 10:00:51;;;;;;;5.38;3.75;;;;;;;9.58;60.63;98527.97;4971747;28;20617;-77
2022/04/10 10:03:18;;;;;;;4.00;1.58;;;;;;;9.68;61.61;98536.44;4971885;28;20046;-77
2022/04/10 10:05:43;;;;;;;5.68;1.63;;;;;;;9.70;60.86;98539.84;4956357;28;20039;-76
2022/04/10 10:08:09;;;;;;;;;;;;;;;9.65;61.51;98539.91;4967231;28;20049;-80
2022/04/10 10:10:36;;;;;;;2.80;1.33;;;;;;;9.41;61.48;98546.38;4973061;28;19924;-78
2022/04/10 10:13:06;;;;;;;8.18;2.45;;;;;;;9.41;61.92;98550.72;4971512;28;20077;-77
2022/04/10 10:15:32;;;;;;;4.43;1.77;;;;;;;9.44;60.95;98540.31;4955234;28;20065;-77
2022/04/10 10:17:59;;;;;;;2.65;1.40;;;;;;;9.42;62.27;98552.41;4971942;28;20031;-78
2022/04/10 10:20:25;;;;;;;4.57;1.60;;;;;;;9.32;62.28;98556.03;4940784;28;20054;-78
2022/04/10 10:22:51;;;;;;;;;;;;;;;9.47;63.03;98555.78;4975650;28;20047;-77
2022/04/10 10:25:24;;;;;;;3.88;1.67;;;;;;;9.36;62.16;98555.97;4976691;28;20446;-78
2022/04/10 10:28:15;;;;;;;2.45;1.75;;;;;;;9.50;60.76;98570.41;4956012;28;20070;-77
2022/04/10 10:31:19;;;;;;;2.95;1.52;;;;;;;9.47;61.96;98567.88;4970116;28;20453;-77
2022/04/10 10:33:58;;;;;;;2.50;1.45;;;;;;;9.36;62.89;98574.09;4976188;28;20043;-77
2022/04/10 10:36:28;;;;;;;2.35;1.38;;;;;;;9.59;62.74;98580.63;4954126;29;20202;-77
2022/04/10 10:38:55;;;;;;;2.08;1.40;;;;;;;9.71;61.91;98585.56;4974804;28;20046;-77
2022/04/10 10:41:24;;;;;;;5.30;1.70;;;;;;;9.84;60.73;98593.97;4975914;28;20062;-77
2022/04/10 10:43:49;;;;;;;3.63;2.20;;;;;;;9.88;60.63;98586.09;4975111;28;20046;-77
2022/04/10 10:46:18;;;;;;;;;;;;;;;10.04;60.93;98589.28;4974974;28;20037;-76
2022/04/10 10:48:44;;;;;;;3.45;2.08;;;;;;;9.87;58.85;98588.75;4976041;28;20331;-77
2022/04/10 10:51:10;;;;;;;;;;;;;;;9.92;59.73;98589.50;4976666;28;20033;-77
2022/04/10 10:53:43;;;;;;;3.58;1.95;;;;;;;9.87;59.38;98592.19;4975669;28;19969;-77
2022/04/10 10:56:19;;;;;;;6.55;2.20;;;;;;;9.81;59.79;98586.28;4974676;28;20129;-78
2022/04/10 10:58:45;;;;;;;6.05;2.05;;;;;;;9.52;59.62;98568.63;4975446;28;20043;-77
2022/04/10 11:01:18;;;;;;;7.65;2.33;;;;;;;9.60;60.51;98588.34;4955058;28;20046;-76
2022/04/10 11:03:59;;;;;;;5.93;2.30;;;;;;;9.77;59.90;98579.44;4985973;28;20494;-78
2022/04/10 11:06:30;;;;;;;5.95;2.65;;;;;;;9.90;59.15;98580.91;4968757;28;20379;-78
2022/04/10 11:09:28;;;;;;;5.38;1.90;;;;;;;9.87;57.95;98588.75;4942836;28;20043;-77
2022/04/10 11:11:53;;;;;;;2.83;1.77;;;;;;;9.73;57.58;98575.19;4969750;28;20051;-76
2022/04/10 11:14:32;;;;;;;;;;;;;;;9.82;55.28;98587.97;4942504;28;20053;-76
2022/04/10 11:17:20;;;;;;;4.07;2.05;;;;;;;9.77;57.73;98577.69;4975729;28;19918;-76
2022/04/10 11:20:05;;;;;;;4.70;1.58;;;;;;;10.00;58.79;98587.63;4975160;28;20061;-76
2022/04/10 11:23:00;;;;;;;2.80;1.80;;;;;;;10.01;58.31;98573.78;4939097;29;20425;-77
2022/04/10 11:25:30;;;;;;;3.05;1.67;;;;;;;10.07;57.14;98589.19;4967837;28;20491;-78
2022/04/10 11:28:07;;;;;;;4.40;2.00;;;;;;;9.98;57.75;98589.38;4973851;28;20074;-78
2022/04/10 11:30:40;;;;;;;4.63;3.08;;;;;;;9.99;57.26;98588.53;4957893;28;20466;-77
2022/04/10 11:33:06;;;;;;;2.97;1.73;;;;;;;9.99;57.55;98585.94;4973790;28;20097;-77
2022/04/10 11:35:39;;;;;;;4.35;1.92;;;;;;;9.77;57.64;98585.47;4955603;28;20097;-76
2022/04/10 11:38:12;;;;;;;4.07;2.00;;;;;;;9.67;60.79;98583.94;4959285;28;20035;-78
2022/04/10 11:40:39;;;;;;;3.05;1.90;;;;;;;9.34;61.53;98570.66;4970422;28;20035;-78
2022/04/10 11:43:08;;;;;;;2.78;1.70;;;;;;;9.34;61.10;98590.50;4954581;28;20056;-76
2022/04/10 11:45:34;;;;;;;5.50;1.88;;;;;;;9.19;61.71;98573.50;4968699;28;20054;-77
2022/04/10 11:48:00;;;;;;;;;;;;;;;9.29;60.68;98587.13;4974072;28;20038;-77
2022/04/10 11:50:26;;;;;;;3.30;2.10;;;;;;;9.13;60.64;98564.09;4969295;28;19961;-77
2022/04/10 11:53:04;;;;;;;4.07;1.90;;;;;;;9.20;58.94;98562.25;4953098;28;20039;-76
2022/04/10 11:55:33;;;;;;;3.45;1.77;;;;;;;9.53;57.02;98580.69;4954777;29;20537;-77
2022/04/10 11:57:59;;;;;;;3.30;2.00;;;;;;;9.66;59.17;98587.38;4965711;28;20066;-77
2022/04/10 12:00:26;;;;;;;13.40;8.38;;;;;;;9.63;59.74;98577.94;4954100;28;20054;-77
2022/04/10 12:02:53;;;;;;;8.68;3.67;;;;;;;9.70;57.14;98577.81;4954770;29;20446;-77